Kampen, Netherlands
Current Conditions -  °F | °C
As of 9:55 AM on Friday 31 Oct 2014 (Local Time) from EHDL Reporting Station
Overcast Overcast  
Wind Chill: 57°   Ceiling: 10000
Heat Index: 57°   Visibility: 6mi
Dew Point: 54°   Wind: 8mph
Humidity: 88%   Direction: 190°S
Pressure: 30.18"   Gusts: NA
Location:  52.56°N, 5.91°E
Report Text: EHDL 310855Z AUTO 19007KT 9999 OVC100 14/12 Q1022 BLU
Loading
Personal Weather Stations






























Interactive Weather Map New forecast layout! Learn more

10-Day Weather Forecast

Advertisements
Track Severe Weather on mobile